Ottawa Gatineau Airport
CYND : now visible

Airfield :











YOU CAN JOIN US ON...

 
LOGIN :

Register | Disclaimer

   EN    FR    IT 

 









Legend :    VFR   Marginal VFR   IFR   Intensive IFR   Very Intensive IFR
Visi :
Ceiling :
>= 8 km
>= 3000ft
5 to 8 km
1000 to 3000 ft
1500m to 5 km
500 to 1000 ft
800 to 1500m
200 to 500 ft
< 800m
< 200 ft
Symbols :   Thunderstorms  Fog  Heavy snow  Heavy precipitations  Wind > 20 kt






- Airport Elevation : 211 ft
- IATA code : YND


CYND - Ottawa Gatineau

CURRENT METAR :
  • 081800Z 10006KT 080V160 15SM OVC085 06/M04 A2965 RMK AC8 SLP044

EXPIRED METARs :
  • 081700Z 10006KT 060V130 15SM BKN088 06/M05 A2966 RMK AC7 SLP047
  • 081600Z 07006KT 15SM BKN085 04/M06 A2966 RMK AC7 SLP049

TAF TAF CYND
Valid from the 08 at 18:00 until the 09 at 01:00 UTC


081739Z 0818/0901 10006KT P6SM BKN090
FM082200 17003KT P6SM OVC050 RMK NXT FCST WILL BE ISSUED AT 091245Z



MET'MAP, your aeronautical weather chart ! - Copyright ORBIFLY December 2007 - Disclaimer

ORBIFLY MET'MAP TEAM :

Programming & Development : Alexandra Zaïnal
Concept & original design : Baudouin d'Aumeries
Assistance for programming : Marc-Olivier Méhu
Technical & hardware support : Manuel Goepfert

Contact : metmap@orbifly.com




SOURCES & CREDITS :

   NOAA       Earth
Advisory